Time;durP1;ratioP1;P1;durP2;ratioP2;P2;SDS_P1;SDS_P2;PMS_P1;PMS_P2;Temp;Humidity;BMP_temperature;BMP_pressure;BME280_temperature;BME280_humidity;BME280_pressure;Samples;Min_cycle;Max_cycle;Signal;HPM_P1;HPM_P2
2022/01/08 00:01:28;;;;;;;15.93;7.70;;;;;;;-145.18;100.00;47697.75;5027646;28;20033;-74
2022/01/08 00:03:53;;;;;;;20.93;8.13;;;;;;;-145.18;100.00;47686.03;5025949;28;20087;-74
2022/01/08 00:06:19;;;;;;;19.93;9.00;;;;;;;-145.18;100.00;47703.63;5027449;28;20465;-75
2022/01/08 00:08:45;;;;;;;18.30;7.20;;;;;;;-145.18;100.00;47687.97;5028336;28;20045;-74
2022/01/08 00:11:14;;;;;;;21.17;7.10;;;;;;;-145.18;100.00;47672.34;5027797;28;20465;-75
2022/01/08 00:13:40;;;;;;;14.90;6.57;;;;;;;-145.18;100.00;47691.91;5027201;28;20080;-75
2022/01/08 00:16:06;;;;;;;18.92;6.60;;;;;;;-145.18;100.00;47703.63;5027295;28;20100;-75
2022/01/08 00:18:32;;;;;;;22.70;5.57;;;;;;;-145.18;100.00;47686.03;5027688;28;20037;-75
2022/01/08 00:20:58;;;;;;;17.80;5.27;;;;;;;-145.18;100.00;47687.97;5026906;28;20072;-75
2022/01/08 00:23:24;;;;;;;17.23;5.30;;;;;;;-145.18;100.00;47701.66;5026178;28;20556;-76
2022/01/08 00:25:49;;;;;;;14.90;5.30;;;;;;;-145.18;100.00;47699.72;5026765;28;20041;-76
2022/01/08 00:28:14;;;;;;;12.63;5.10;;;;;;;-145.18;100.00;47701.66;5028255;28;20045;-76
2022/01/08 00:30:40;;;;;;;14.17;5.60;;;;;;;-145.18;100.00;47697.75;5026787;28;20041;-77
2022/01/08 00:33:05;;;;;;;18.13;5.63;;;;;;;-145.18;100.00;47684.06;5027421;28;20069;-76
2022/01/08 00:35:32;;;;;;;15.17;5.20;;;;;;;-145.18;100.00;47660.63;5026945;28;20037;-76
2022/01/08 00:37:58;;;;;;;12.05;4.68;;;;;;;-145.18;100.00;47676.25;5026724;28;20041;-76
2022/01/08 00:40:23;;;;;;;12.70;5.13;;;;;;;-145.18;100.00;47674.31;5025319;28;20044;-76
2022/01/08 00:42:49;;;;;;;18.57;5.30;;;;;;;-145.18;100.00;47691.91;5027310;28;20057;-75
2022/01/08 00:45:14;;;;;;;10.47;4.97;;;;;;;-145.18;100.00;47678.22;5025753;28;20047;-75
2022/01/08 00:47:40;;;;;;;16.20;5.03;;;;;;;-145.18;100.00;47689.94;5027263;28;20088;-74
2022/01/08 00:50:06;;;;;;;11.87;4.30;;;;;;;-145.18;100.00;47695.81;5027215;28;20045;-74
2022/01/08 00:52:31;;;;;;;13.73;4.57;;;;;;;-145.18;100.00;47689.94;5026964;28;20406;-74
2022/01/08 00:54:57;;;;;;;10.87;4.40;;;;;;;-145.18;100.00;47691.91;5026945;28;20033;-73
2022/01/08 00:57:22;;;;;;;9.07;4.03;;;;;;;-145.18;100.00;47691.91;5028062;28;20038;-73
2022/01/08 00:59:48;;;;;;;11.07;4.70;;;;;;;-145.18;100.00;47709.47;5026996;28;20045;-73
2022/01/08 01:02:13;;;;;;;13.40;4.23;;;;;;;-145.18;100.00;47687.97;5027122;28;20470;-74
2022/01/08 01:04:38;;;;;;;10.10;4.10;;;;;;;-145.18;100.00;47699.72;5025762;28;20601;-73
2022/01/08 01:07:04;;;;;;;11.57;3.93;;;;;;;-145.18;100.00;47729.00;5026947;28;20068;-73
2022/01/08 01:09:29;;;;;;;12.53;4.47;;;;;;;-145.18;100.00;47705.56;5027055;28;20045;-74
2022/01/08 01:11:57;;;;;;;17.60;3.87;;;;;;;-145.18;100.00;47709.47;5026095;28;20053;-74
2022/01/08 01:14:26;;;;;;;11.05;4.05;;;;;;;-145.18;100.00;47682.13;5027365;28;20466;-74
2022/01/08 01:16:52;;;;;;;14.15;5.38;;;;;;;-145.18;100.00;47705.56;5026709;28;20052;-73
2022/01/08 01:19:18;;;;;;;11.80;4.00;;;;;;;-145.18;100.00;47691.91;5026831;28;20037;-73
2022/01/08 01:21:43;;;;;;;12.33;3.80;;;;;;;-145.18;100.00;47705.56;5026692;28;20029;-73
2022/01/08 01:24:14;;;;;;;12.73;3.77;;;;;;;-145.18;100.00;47711.44;5027368;28;20033;-73
2022/01/08 01:26:49;;;;;;;12.68;4.05;;;;;;;-145.18;100.00;47707.53;5026564;28;20059;-75
2022/01/08 01:29:34;;;;;;;10.43;3.63;;;;;;;-145.18;100.00;47717.28;5025629;28;20136;-74
2022/01/08 01:48:21;;;;;;;10.02;3.63;;;;;;;-145.18;100.00;47687.97;5029767;28;20052;-74
2022/01/08 01:50:47;;;;;;;14.77;3.63;;;;;;;-145.18;100.00;47711.44;5029927;28;20510;-75
2022/01/08 01:53:13;;;;;;;12.40;4.10;;;;;;;-145.18;100.00;47701.66;5031322;28;20120;-75
2022/01/08 01:55:43;;;;;;;14.98;3.85;;;;;;;-145.18;100.00;47734.88;5029215;28;20506;-75
2022/01/08 01:58:09;;;;;;;18.02;3.85;;;;;;;-145.18;100.00;47703.63;5030709;28;20042;-75
2022/01/08 02:00:35;;;;;;;9.88;3.85;;;;;;;-145.18;100.00;47707.53;5030649;28;20029;-75
2022/01/08 02:03:00;;;;;;;11.10;3.93;;;;;;;-145.18;100.00;47709.47;5029206;28;20516;-74
2022/01/08 02:05:27;;;;;;;16.10;4.73;;;;;;;-145.18;100.00;47703.63;5031170;28;20179;-74
2022/01/08 02:07:56;;;;;;;11.48;4.05;;;;;;;-145.18;100.00;47686.03;5030026;28;20065;-74
2022/01/08 02:10:24;;;;;;;16.88;5.28;;;;;;;-145.18;100.00;47687.97;5030723;28;20077;-73
2022/01/08 02:12:50;;;;;;;9.20;4.53;;;;;;;-145.18;100.00;47672.34;5030157;28;20083;-74
2022/01/08 02:15:16;;;;;;;20.17;4.23;;;;;;;-145.18;100.00;47717.28;5030479;28;20038;-74
2022/01/08 02:17:41;;;;;;;9.87;4.03;;;;;;;-145.18;100.00;47695.81;5029876;28;20030;-73
2022/01/08 02:20:08;;;;;;;19.10;4.50;;;;;;;-145.18;100.00;47680.16;5028452;28;20081;-73
2022/01/08 02:22:34;;;;;;;9.90;4.30;;;;;;;-145.18;100.00;47686.03;5030729;28;20120;-73
2022/01/08 02:24:59;;;;;;;15.60;4.30;;;;;;;-145.18;100.00;47701.66;5029906;28;20124;-73
2022/01/08 02:27:25;;;;;;;12.37;4.30;;;;;;;-145.18;100.00;47711.44;5030171;28;20053;-73
2022/01/08 02:29:52;;;;;;;12.20;3.97;;;;;;;-145.18;100.00;47680.16;5029514;28;20099;-73
2022/01/08 02:32:20;;;;;;;10.90;3.75;;;;;;;-145.18;100.00;47684.06;5029662;28;20053;-73
2022/01/08 02:34:48;;;;;;;8.95;3.78;;;;;;;-145.18;100.00;47723.16;5029153;28;20112;-72
2022/01/08 02:37:19;;;;;;;19.33;3.88;;;;;;;-145.18;100.00;47684.06;5029501;28;20046;-73
2022/01/08 02:39:49;;;;;;;11.23;2.90;;;;;;;-145.18;100.00;47703.63;5029485;28;20044;-72
2022/01/08 02:42:19;;;;;;;11.43;3.53;;;;;;;-145.18;100.00;47691.91;5029801;28;20515;-72
2022/01/08 02:44:46;;;;;;;12.25;3.47;;;;;;;-145.18;100.00;47695.81;5029582;28;20593;-73
2022/01/08 02:47:16;;;;;;;18.40;4.25;;;;;;;-145.18;100.00;47717.28;5028725;28;20076;-72
2022/01/08 02:49:41;;;;;;;13.82;4.57;;;;;;;-145.18;100.00;47703.63;5028708;28;20109;-72
2022/01/08 02:52:07;;;;;;;15.00;4.10;;;;;;;-145.18;100.00;47687.97;5028544;28;20116;-73
2022/01/08 02:54:33;;;;;;;12.85;3.80;;;;;;;-145.18;100.00;47695.81;5028848;28;20053;-73
2022/01/08 02:56:59;;;;;;;19.13;4.90;;;;;;;-145.18;100.00;47703.63;5028674;28;20544;-73
2022/01/08 02:59:24;;;;;;;14.23;4.47;;;;;;;-145.18;100.00;47680.16;5029639;28;20038;-73
2022/01/08 03:01:49;;;;;;;17.10;5.27;;;;;;;-145.18;100.00;47693.84;5029005;28;20567;-72
2022/01/08 03:04:15;;;;;;;16.70;6.83;;;;;;;-145.18;100.00;47695.81;5029256;28;20563;-72
2022/01/08 03:06:41;;;;;;;18.47;7.00;;;;;;;-145.18;100.00;47721.19;5029239;28;20498;-73
2022/01/08 03:09:07;;;;;;;12.77;5.60;;;;;;;-145.18;100.00;47715.34;5028954;28;20037;-72
2022/01/08 03:11:33;;;;;;;13.13;5.57;;;;;;;-145.18;100.00;47721.19;5028883;28;20037;-73
2022/01/08 03:13:59;;;;;;;14.63;4.47;;;;;;;-145.18;100.00;47684.06;5028857;28;20776;-72
2022/01/08 03:16:25;;;;;;;13.73;3.27;;;;;;;-145.18;100.00;47684.06;5028840;28;20049;-72
2022/01/08 03:18:50;;;;;;;12.77;3.37;;;;;;;-145.18;100.00;47684.06;5028420;28;20057;-72
2022/01/08 03:21:19;;;;;;;10.67;2.97;;;;;;;-145.18;100.00;47680.16;5028025;28;20120;-72
2022/01/08 03:24:00;;;;;;;10.52;3.22;;;;;;;-145.18;100.00;47687.97;5028757;28;20401;-72
2022/01/08 03:26:27;;;;;;;14.20;4.00;;;;;;;-145.18;100.00;47691.91;5028552;28;20133;-72
2022/01/08 03:28:55;;;;;;;15.48;4.00;;;;;;;-145.18;100.00;47697.75;5028233;28;20059;-72
2022/01/08 03:31:21;;;;;;;14.13;3.75;;;;;;;-145.18;100.00;47678.22;5028713;28;20041;-72
2022/01/08 03:33:48;;;;;;;13.10;3.60;;;;;;;-145.18;100.00;47695.81;5028685;28;20402;-73
2022/01/08 03:36:15;;;;;;;9.05;4.13;;;;;;;-145.18;100.00;47719.25;5028031;28;20041;-72
2022/01/08 03:38:41;;;;;;;12.38;4.13;;;;;;;-145.18;100.00;47693.84;5028508;28;20034;-72
2022/01/08 03:41:07;;;;;;;13.18;5.50;;;;;;;-145.18;100.00;47697.75;5028431;28;20061;-71
2022/01/08 03:43:33;;;;;;;14.83;4.53;;;;;;;-145.18;100.00;47703.63;5028502;28;20435;-72
2022/01/08 03:46:01;;;;;;;11.70;4.38;;;;;;;-145.18;100.00;47684.06;5027857;28;20056;-72
2022/01/08 03:48:32;;;;;;;17.00;3.78;;;;;;;-145.18;100.00;47676.25;5028416;28;20107;-71
2022/01/08 03:50:59;;;;;;;11.23;2.60;;;;;;;-145.18;100.00;47676.25;5027462;28;20132;-72
2022/01/08 03:53:26;;;;;;;11.05;2.95;;;;;;;-145.18;100.00;47672.34;5028375;28;20040;-71
2022/01/08 03:55:53;;;;;;;9.63;2.30;;;;;;;-145.18;100.00;47689.94;5027799;28;20041;-72
2022/01/08 03:58:19;;;;;;;13.02;2.42;;;;;;;-145.18;100.00;47680.16;5026254;28;20045;-72
2022/01/08 04:00:45;;;;;;;12.93;2.80;;;;;;;-145.18;100.00;47674.31;5027684;28;20037;-72
2022/01/08 04:03:11;;;;;;;12.43;1.70;;;;;;;-145.18;100.00;47654.78;5028153;28;20047;-72
2022/01/08 04:05:36;;;;;;;13.83;3.07;;;;;;;-145.18;100.00;47674.31;5028266;28;20041;-72
2022/01/08 04:08:02;;;;;;;14.13;1.80;;;;;;;-145.18;100.00;47646.97;5027498;28;20099;-72
2022/01/08 04:10:27;;;;;;;7.13;1.60;;;;;;;-145.18;100.00;47684.06;5028192;28;20048;-72
2022/01/08 04:12:57;;;;;;;6.90;2.00;;;;;;;-145.18;100.00;47650.88;5027495;28;20568;-72
2022/01/08 04:17:49;;;;;;;8.40;1.90;;;;;;;-145.18;100.00;47646.97;5027473;28;20079;-72
2022/01/08 04:20:15;;;;;;;9.50;1.63;;;;;;;-145.18;100.00;47650.88;5027469;28;20099;-72
2022/01/08 04:22:43;;;;;;;13.57;1.55;;;;;;;-145.18;100.00;47646.97;5028337;28;20124;-72
2022/01/08 04:25:09;;;;;;;5.97;1.60;;;;;;;-145.18;100.00;47645.00;5027365;28;20885;-72
2022/01/08 04:27:35;;;;;;;8.13;1.27;;;;;;;-145.18;100.00;47664.53;5027492;28;20037;-72
2022/01/08 04:30:00;;;;;;;9.87;1.20;;;;;;;-145.18;100.00;47670.41;5027263;28;20275;-73
2022/01/08 04:32:26;;;;;;;7.67;1.90;;;;;;;-145.18;100.00;47680.16;5027605;28;20026;-72
2022/01/08 04:34:51;;;;;;;7.13;1.40;;;;;;;-145.18;100.00;47670.41;5027485;28;20045;-72
2022/01/08 04:37:16;;;;;;;10.83;1.83;;;;;;;-145.18;100.00;47676.25;5026209;28;20037;-72
2022/01/08 04:39:42;;;;;;;8.73;1.60;;;;;;;-145.18;100.00;47676.25;5025814;28;20045;-72
2022/01/08 04:42:07;;;;;;;6.93;1.83;;;;;;;-145.18;100.00;47662.59;5027359;28;20098;-72
2022/01/08 04:44:32;;;;;;;6.67;1.63;;;;;;;-145.18;100.00;47707.53;5027455;28;20041;-72
2022/01/08 04:46:58;;;;;;;12.40;2.20;;;;;;;-145.18;100.00;47693.84;5026362;28;20065;-72
2022/01/08 04:49:23;;;;;;;8.90;2.00;;;;;;;-145.18;100.00;47711.44;5027825;28;20037;-71
2022/01/08 04:51:49;;;;;;;14.97;2.57;;;;;;;-145.18;100.00;47711.44;5027590;28;20042;-72
2022/01/08 04:54:14;;;;;;;10.17;2.13;;;;;;;-145.18;100.00;47676.25;5027365;28;20049;-72
2022/01/08 04:56:39;;;;;;;9.37;2.67;;;;;;;-145.18;100.00;47705.56;5027107;28;20033;-71
2022/01/08 04:59:05;;;;;;;12.70;2.33;;;;;;;-145.18;100.00;47707.53;5027159;28;20418;-72
2022/01/08 05:01:30;;;;;;;15.13;2.50;;;;;;;-145.18;100.00;47715.34;5026586;28;20083;-71
2022/01/08 05:03:56;;;;;;;13.53;2.87;;;;;;;-145.18;100.00;47691.91;5027141;28;20029;-71
2022/01/08 05:06:21;;;;;;;8.60;2.43;;;;;;;-145.18;100.00;47699.72;5027590;28;20037;-71
2022/01/08 05:08:47;;;;;;;14.47;3.00;;;;;;;-145.18;100.00;47719.25;5020901;28;20046;-71
2022/01/08 05:11:12;;;;;;;7.57;2.43;;;;;;;-145.18;100.00;47719.25;5029536;28;20041;-70
2022/01/08 05:13:38;;;;;;;6.37;2.40;;;;;;;-145.18;100.00;47738.78;5031036;28;20521;-70
2022/01/08 05:16:05;;;;;;;10.45;3.15;;;;;;;-145.18;100.00;47711.44;5031017;28;20041;-70
2022/01/08 05:18:32;;;;;;;8.48;3.00;;;;;;;-145.18;100.00;47729.00;5030929;28;20041;-70
2022/01/08 05:23:41;;;;;;;12.32;3.80;;;;;;;-145.18;100.00;47730.97;5030672;28;20042;-70
2022/01/08 05:26:07;;;;;;;14.17;3.77;;;;;;;-145.18;100.00;47709.47;5030548;28;20529;-70
2022/01/08 05:28:32;;;;;;;14.80;3.27;;;;;;;-145.18;100.00;47713.38;5029163;28;20098;-70
2022/01/08 05:30:57;;;;;;;15.30;3.57;;;;;;;-145.18;100.00;47711.44;5031510;28;20037;-70
2022/01/08 05:33:23;;;;;;;12.40;3.73;;;;;;;-145.18;100.00;47717.28;5030541;28;20502;-70
2022/01/08 05:35:48;;;;;;;19.77;3.53;;;;;;;-145.18;100.00;47719.25;5030660;28;20041;-69
2022/01/08 05:38:14;;;;;;;15.97;4.17;;;;;;;-145.18;100.00;47703.63;5030426;28;20049;-69
2022/01/08 05:40:39;;;;;;;10.97;3.60;;;;;;;-145.18;100.00;47715.34;5030737;28;20116;-69
2022/01/08 05:43:04;;;;;;;13.93;3.33;;;;;;;-145.18;100.00;47715.34;5025948;28;20052;-69
2022/01/08 05:45:30;;;;;;;21.10;4.13;;;;;;;-145.18;100.00;47701.66;5029882;28;20390;-69
2022/01/08 05:47:55;;;;;;;13.47;4.00;;;;;;;-145.18;100.00;47725.09;5029053;28;20033;-69
2022/01/08 05:50:21;;;;;;;11.17;3.67;;;;;;;-145.18;100.00;47687.97;5030015;28;20034;-69
2022/01/08 05:52:48;;;;;;;19.23;4.53;;;;;;;-145.18;100.00;47711.44;5028753;28;20065;-69
2022/01/08 05:55:14;;;;;;;10.55;3.47;;;;;;;-145.18;100.00;47707.53;5030418;28;20045;-69
2022/01/08 05:57:39;;;;;;;16.17;5.30;;;;;;;-145.18;100.00;47717.28;5030263;28;20041;-69
2022/01/08 06:00:07;;;;;;;14.40;4.17;;;;;;;-145.18;100.00;47717.28;5030840;28;20050;-69
2022/01/08 06:02:32;;;;;;;15.57;5.13;;;;;;;-145.18;100.00;47727.06;5030280;28;20073;-69
2022/01/08 06:04:58;;;;;;;16.00;4.27;;;;;;;-145.18;100.00;47717.28;5030033;28;20077;-69
2022/01/08 06:07:23;;;;;;;15.90;4.90;;;;;;;-145.18;100.00;47725.09;5030120;28;20041;-69
2022/01/08 06:09:48;;;;;;;14.83;3.80;;;;;;;-145.18;100.00;47717.28;5030302;28;20252;-69
2022/01/08 06:12:14;;;;;;;15.53;4.20;;;;;;;-145.18;100.00;47693.84;5029986;28;20046;-69
2022/01/08 06:14:39;;;;;;;22.20;5.10;;;;;;;-145.18;100.00;47705.56;5030872;28;20049;-69
2022/01/08 06:17:05;;;;;;;15.70;5.00;;;;;;;-145.18;100.00;47697.75;5029700;28;20607;-69
2022/01/08 06:19:32;;;;;;;14.47;5.50;;;;;;;-145.18;100.00;47703.63;5029906;28;20045;-69
2022/01/08 06:21:57;;;;;;;16.83;5.47;;;;;;;-145.18;100.00;47707.53;5029250;28;20063;-70
2022/01/08 06:24:23;;;;;;;14.97;4.90;;;;;;;-145.18;100.00;47727.06;5030261;28;20042;-69
2022/01/08 06:26:48;;;;;;;16.27;5.07;;;;;;;-145.18;100.00;47686.03;5027954;28;20040;-69
2022/01/08 06:29:14;;;;;;;12.13;5.23;;;;;;;-145.18;100.00;47705.56;5030580;28;20033;-69
2022/01/08 06:31:39;;;;;;;15.23;5.90;;;;;;;-145.18;100.00;47729.00;5029711;28;20044;-69
2022/01/08 06:34:05;;;;;;;19.83;6.97;;;;;;;-145.18;100.00;47715.34;5028856;28;20132;-69
2022/01/08 06:36:30;;;;;;;20.17;6.33;;;;;;;-145.18;100.00;47689.94;5029831;28;20061;-69
2022/01/08 06:38:56;;;;;;;17.53;6.13;;;;;;;-145.18;100.00;47705.56;5028805;28;20128;-69
2022/01/08 06:41:21;;;;;;;19.03;7.37;;;;;;;-145.18;100.00;47703.63;5029784;28;20041;-69
2022/01/08 06:43:47;;;;;;;17.80;8.63;;;;;;;-145.18;100.00;47711.44;5029512;28;20076;-69
2022/01/08 06:46:13;;;;;;;15.13;7.70;;;;;;;-145.18;100.00;47701.66;5029586;28;20053;-69
2022/01/08 06:48:38;;;;;;;25.20;8.53;;;;;;;-145.18;100.00;47703.63;5029645;28;20092;-69
2022/01/08 06:51:04;;;;;;;26.47;8.67;;;;;;;-145.18;100.00;47691.91;5029374;28;20045;-69
2022/01/08 06:53:29;;;;;;;23.07;8.93;;;;;;;-145.18;100.00;47715.34;5029409;28;20120;-69
2022/01/08 06:55:54;;;;;;;27.13;9.57;;;;;;;-145.18;100.00;47721.19;5027702;28;20034;-69
2022/01/08 06:58:21;;;;;;;18.57;9.40;;;;;;;-145.18;100.00;47721.19;5029665;28;20064;-69
2022/01/08 07:00:47;;;;;;;30.08;10.80;;;;;;;-145.18;100.00;47707.53;5029230;28;20073;-70
2022/01/08 07:03:12;;;;;;;22.63;11.10;;;;;;;-145.18;100.00;47707.53;5029216;28;20551;-69
2022/01/08 07:05:38;;;;;;;24.20;11.63;;;;;;;-145.18;100.00;47701.66;5029435;28;20053;-69
2022/01/08 07:08:04;;;;;;;36.28;13.60;;;;;;;-145.18;100.00;47723.16;5028522;28;20387;-69
2022/01/08 07:10:31;;;;;;;23.63;11.88;;;;;;;-145.18;100.00;47713.38;5029416;28;20052;-69
2022/01/08 07:12:56;;;;;;;36.30;13.35;;;;;;;-145.18;100.00;47691.91;5028484;28;20050;-69
2022/01/08 07:15:21;;;;;;;32.97;13.67;;;;;;;-145.18;100.00;47686.03;5030038;28;20045;-69
2022/01/08 07:17:47;;;;;;;33.97;14.93;;;;;;;-145.18;100.00;47707.53;5028035;28;20553;-69
2022/01/08 07:20:12;;;;;;;30.40;14.30;;;;;;;-145.18;100.00;47709.47;5026827;28;20052;-69
2022/01/08 07:22:38;;;;;;;36.40;15.07;;;;;;;-145.18;100.00;47707.53;5028706;28;20142;-69
2022/01/08 07:25:05;;;;;;;26.23;14.03;;;;;;;-145.18;100.00;47699.72;5027429;28;20037;-69
2022/01/08 07:27:32;;;;;;;35.13;15.50;;;;;;;-145.18;100.00;47703.63;5028350;28;20391;-69
2022/01/08 07:29:59;;;;;;;38.58;15.27;;;;;;;-145.18;100.00;47711.44;5029030;28;20673;-69
2022/01/08 07:32:24;;;;;;;38.03;14.15;;;;;;;-145.18;100.00;47691.91;5026127;28;20413;-69
2022/01/08 07:34:50;;;;;;;29.73;14.40;;;;;;;-145.18;100.00;47684.06;5027728;28;20057;-70
2022/01/08 07:37:16;;;;;;;33.60;14.97;;;;;;;-145.18;100.00;47711.44;5027743;28;20085;-69
2022/01/08 07:39:41;;;;;;;37.13;14.80;;;;;;;-145.18;100.00;47707.53;5028735;28;20099;-70
2022/01/08 07:42:07;;;;;;;36.83;14.67;;;;;;;-145.18;100.00;47695.81;5028098;28;20545;-70
2022/01/08 07:44:33;;;;;;;29.98;14.15;;;;;;;-145.18;100.00;47678.22;5028555;28;20052;-70
2022/01/08 07:47:00;;;;;;;32.60;14.20;;;;;;;-145.18;100.00;47701.66;5026081;28;20453;-70
2022/01/08 07:49:25;;;;;;;31.63;14.68;;;;;;;-145.18;100.00;47687.97;5027829;28;20037;-71
2022/01/08 07:51:51;;;;;;;30.17;15.13;;;;;;;-145.18;100.00;47680.16;5027475;28;20044;-72
2022/01/08 07:54:16;;;;;;;40.63;15.23;;;;;;;-145.18;100.00;47695.81;5027594;28;20046;-72
2022/01/08 07:56:42;;;;;;;30.50;14.30;;;;;;;-145.18;100.00;47680.16;5027711;28;20044;-71
2022/01/08 07:59:07;;;;;;;26.63;14.30;;;;;;;-145.18;100.00;47697.75;5027211;28;20510;-73
2022/01/08 08:01:32;;;;;;;30.77;13.43;;;;;;;-145.18;100.00;47678.22;5028545;28;20041;-72
2022/01/08 08:03:58;;;;;;;27.27;13.00;;;;;;;-145.18;100.00;47695.81;5027322;28;20076;-72
2022/01/08 08:06:23;;;;;;;25.83;13.60;;;;;;;-145.18;100.00;47664.53;5027696;28;20041;-72
2022/01/08 08:08:49;;;;;;;25.63;13.10;;;;;;;-145.18;100.00;47695.81;5027240;28;20065;-72
2022/01/08 08:11:14;;;;;;;34.97;14.67;;;;;;;-145.18;100.00;47672.34;5026142;28;20680;-73
2022/01/08 08:13:40;;;;;;;23.70;13.20;;;;;;;-145.18;100.00;47676.25;5027717;28;20045;-72
2022/01/08 08:16:07;;;;;;;28.67;14.00;;;;;;;-145.18;100.00;47705.56;5028000;28;20033;-74
2022/01/08 08:18:32;;;;;;;23.88;13.40;;;;;;;-145.18;100.00;47680.16;5027125;28;20427;-74
2022/01/08 08:20:57;;;;;;;28.83;14.17;;;;;;;-145.18;100.00;47721.19;5027032;28;20049;-74
2022/01/08 08:23:24;;;;;;;29.77;14.65;;;;;;;-145.18;100.00;47701.66;5027163;28;20080;-73
2022/01/08 08:25:50;;;;;;;30.50;15.07;;;;;;;-145.18;100.00;47701.66;5027409;28;20116;-73
2022/01/08 08:28:15;;;;;;;30.90;14.80;;;;;;;-145.18;100.00;47672.34;5027056;28;20106;-73
2022/01/08 08:30:41;;;;;;;24.83;13.03;;;;;;;-145.18;100.00;47715.34;5010346;28;20121;-73
2022/01/08 08:33:06;;;;;;;34.53;14.27;;;;;;;-145.18;100.00;47678.22;5025406;28;20509;-73
2022/01/08 08:35:32;;;;;;;26.37;13.73;;;;;;;-145.18;100.00;47701.66;5027638;28;20117;-72
2022/01/08 08:37:58;;;;;;;30.13;14.57;;;;;;;-145.18;100.00;47686.03;5026561;28;20183;-73
2022/01/08 08:40:23;;;;;;;32.43;14.60;;;;;;;-145.18;100.00;47686.03;5028048;28;20492;-73
2022/01/08 08:42:49;;;;;;;27.03;14.83;;;;;;;-145.18;100.00;47672.34;5026892;28;20041;-73
2022/01/08 08:45:14;;;;;;;33.20;15.63;;;;;;;-145.18;100.00;47687.97;5028184;28;20106;-73
2022/01/08 08:47:41;;;;;;;38.03;14.83;;;;;;;-145.18;100.00;47689.94;5027412;28;20094;-73
2022/01/08 08:50:09;;;;;;;38.30;15.52;;;;;;;-145.18;100.00;47664.53;5027122;28;20042;-73
2022/01/08 08:52:35;;;;;;;27.90;15.63;;;;;;;-145.18;100.00;47699.72;5027418;28;20042;-72
2022/01/08 08:55:00;;;;;;;30.00;15.73;;;;;;;-145.18;100.00;47699.72;5027036;28;20041;-73
2022/01/08 08:57:26;;;;;;;25.77;14.53;;;;;;;-145.18;100.00;47674.31;5027010;28;20037;-73
2022/01/08 08:59:51;;;;;;;30.57;17.23;;;;;;;-145.18;100.00;47670.41;5026128;28;20051;-73
2022/01/08 09:02:17;;;;;;;31.47;15.37;;;;;;;-145.18;100.00;47674.31;5026920;28;20045;-73
2022/01/08 09:04:43;;;;;;;33.07;17.43;;;;;;;-145.18;100.00;47699.72;5026436;28;20037;-73
2022/01/08 09:07:08;;;;;;;33.47;15.57;;;;;;;-145.18;100.00;47670.41;5026334;28;20044;-73
2022/01/08 09:09:35;;;;;;;36.57;17.83;;;;;;;-145.18;100.00;47664.53;5026426;28;20053;-73
2022/01/08 09:12:01;;;;;;;30.75;15.63;;;;;;;-145.18;100.00;47676.25;5026293;28;20034;-73
2022/01/08 09:14:26;;;;;;;28.67;15.60;;;;;;;-145.18;100.00;47654.78;5026905;28;20628;-73
2022/01/08 09:16:57;;;;;;;31.90;16.40;;;;;;;-145.18;100.00;47662.59;5027218;28;20644;-73
2022/01/08 09:19:23;;;;;;;27.27;15.10;;;;;;;-145.18;100.00;47660.63;5026583;28;20491;-72
2022/01/08 09:21:50;;;;;;;33.80;17.00;;;;;;;-145.18;100.00;47666.50;5025974;28;20037;-73
2022/01/08 09:24:20;;;;;;;31.42;16.17;;;;;;;-145.18;100.00;47664.53;5026130;28;20053;-72
2022/01/08 09:26:49;;;;;;;30.38;17.83;;;;;;;-145.18;100.00;47660.63;5021369;28;20044;-72
2022/01/08 09:29:16;;;;;;;36.80;17.77;;;;;;;-145.18;100.00;47674.31;5019609;28;20037;-72
2022/01/08 09:31:41;;;;;;;35.22;17.42;;;;;;;-145.18;100.00;47662.59;5025045;28;20060;-73
2022/01/08 09:34:08;;;;;;;40.53;17.40;;;;;;;-145.18;100.00;47656.72;5024829;28;20636;-72
2022/01/08 09:36:34;;;;;;;37.03;17.50;;;;;;;-145.18;100.00;47648.91;5025353;28;20129;-73
2022/01/08 09:39:00;;;;;;;37.47;18.37;;;;;;;-145.18;100.00;47654.78;5026680;28;20124;-72
2022/01/08 09:41:25;;;;;;;33.03;17.07;;;;;;;-145.18;100.00;47674.31;5025587;28;20041;-72
2022/01/08 09:43:51;;;;;;;40.53;18.77;;;;;;;-145.18;100.00;47668.44;5025904;28;20034;-72
2022/01/08 09:46:19;;;;;;;32.67;18.10;;;;;;;-145.18;100.00;47664.53;5026389;28;20057;-72
2022/01/08 09:48:45;;;;;;;34.80;17.05;;;;;;;-145.18;100.00;47621.56;5026642;28;20079;-72
2022/01/08 09:51:11;;;;;;;40.53;19.43;;;;;;;-145.18;100.00;47643.03;5026708;28;20045;-72
2022/01/08 09:53:36;;;;;;;39.00;20.87;;;;;;;-145.18;100.00;47658.69;5026892;28;20159;-72
2022/01/08 09:56:03;;;;;;;51.80;29.80;;;;;;;-145.18;100.00;47641.09;5028656;28;20048;-72
2022/01/08 09:58:29;;;;;;;56.47;31.83;;;;;;;-145.18;100.00;47635.22;5029780;28;20045;-72
2022/01/08 10:00:54;;;;;;;55.13;27.43;;;;;;;-145.18;100.00;47643.03;5030293;28;20103;-72
2022/01/08 10:03:22;;;;;;;55.23;25.43;;;;;;;-145.18;100.00;47654.78;5029920;28;20044;-72
2022/01/08 10:05:50;;;;;;;43.05;22.58;;;;;;;-145.18;100.00;47656.72;5030138;28;20150;-72
2022/01/08 10:08:23;;;;;;;37.60;18.35;;;;;;;-145.18;100.00;47637.19;5029972;28;20040;-72
2022/01/08 10:11:07;;;;;;;34.35;15.57;;;;;;;-145.18;100.00;47656.72;5026809;28;20053;-72
2022/01/08 10:13:36;;;;;;;37.57;16.07;;;;;;;-145.18;100.00;47633.28;5027601;28;20045;-72
2022/01/08 10:18:47;;;;;;;26.50;13.48;;;;;;;-145.18;100.00;47643.03;5029907;28;20172;-72
2022/01/08 10:21:20;;;;;;;33.85;15.40;;;;;;;-145.18;100.00;47633.28;5029384;28;20049;-72
2022/01/08 10:23:54;;;;;;;28.77;14.47;;;;;;;-145.18;100.00;47648.91;5028623;28;21508;-72
2022/01/08 10:26:22;;;;;;;33.17;14.70;;;;;;;-145.18;100.00;47625.47;5028979;28;20266;-72
2022/01/08 10:28:59;;;;;;;30.20;12.38;;;;;;;-145.18;100.00;47641.09;5027893;28;20275;-72
2022/01/08 10:31:39;;;;;;;25.03;12.73;;;;;;;-145.18;100.00;47631.31;5026197;28;20502;-72
2022/01/08 10:34:10;;;;;;;33.95;14.30;;;;;;;-145.18;100.00;47625.47;5028539;28;20341;-72
2022/01/08 10:36:39;;;;;;;25.67;12.45;;;;;;;-145.18;100.00;47639.13;5029589;28;20103;-72
2022/01/08 10:39:07;;;;;;;29.53;12.03;;;;;;;-145.18;100.00;47629.38;5029061;28;20494;-72
2022/01/08 10:41:39;;;;;;;25.20;12.40;;;;;;;-145.18;100.00;47631.31;5029216;28;20283;-72
2022/01/08 10:44:20;;;;;;;34.47;12.40;;;;;;;-145.18;100.00;47611.78;5028723;28;20286;-72
2022/01/08 10:46:56;;;;;;;29.53;12.60;;;;;;;-145.18;100.00;47627.41;5029416;28;20355;-72
2022/01/08 10:49:32;;;;;;;29.73;11.83;;;;;;;-145.18;100.00;47623.50;5028685;28;20325;-72
2022/01/08 10:52:00;;;;;;;24.98;11.23;;;;;;;-145.18;100.00;47613.75;5029276;28;20265;-72
2022/01/08 10:54:28;;;;;;;23.27;10.97;;;;;;;-145.18;100.00;47617.66;5029143;28;20033;-73
2022/01/08 10:56:59;;;;;;;24.17;11.43;;;;;;;-145.18;100.00;47621.56;5028512;28;20278;-72
2022/01/08 10:59:26;;;;;;;26.97;11.90;;;;;;;-145.18;100.00;47596.16;5028904;28;20401;-72
2022/01/08 11:01:59;;;;;;;24.87;12.00;;;;;;;-145.18;100.00;47594.19;5028981;28;20303;-72
2022/01/08 11:04:46;;;;;;;24.43;10.47;;;;;;;-145.18;100.00;47603.97;5028766;28;20275;-72
2022/01/08 11:07:30;;;;;;;21.40;10.47;;;;;;;-145.18;100.00;47590.28;5027546;28;20270;-72
2022/01/08 11:10:06;;;;;;;24.90;10.70;;;;;;;-145.18;100.00;47588.34;5028579;28;20385;-72
2022/01/08 11:12:34;;;;;;;;;;;;;;;-145.18;100.00;47584.44;5029515;28;20282;-72
2022/01/08 11:17:56;;;;;;;20.43;9.27;;;;;;;-145.18;100.00;47582.47;5016486;28;20278;-72
2022/01/08 11:20:23;;;;;;;20.53;8.30;;;;;;;-145.18;100.00;47584.44;5025424;28;20267;-72
2022/01/08 11:22:57;;;;;;;18.03;8.90;;;;;;;-145.18;100.00;47582.47;5025666;28;20373;-72
2022/01/08 11:25:33;;;;;;;17.03;9.57;;;;;;;-145.18;100.00;47598.09;5027761;28;20421;-72